Sutton, WV

5:43 PM EST on December 06, 2016 (GMT -0500)
Estates | | Change Station

Elev 1178 ft 38.66 °N, 80.74 °W | Updated 3 minutes ago

Overcast
Overcast
44.7 °F
Feels Like 45 °F
N
0.0
Wind Variable Wind from WSW
Gusts 0.0 mph

Today
High -- | Low -- °F
--% Chance of Precip.
Yesterday
High -- | Low -- °F
Precip. -- in
Pressure 29.71 in
Visibility 2.5 miles
Clouds Few 700 ft
Mostly Cloudy 2100 ft
Overcast 2600 ft
Windchill 45 °F
Dew Point 43 °F
Humidity 95%
Rainfall 0.30 in
Snow Depth Not available.
7:26 AM 5:01 PM
Waxing Crescent, 46% visible
METAR KW22 062235Z AUTO 13004KT 2 1/2SM BR FEW007 BKN021 OVC026 05/05 A2971 RMK AO2 PWINO
Pressure 29.71 in
Visibility 2.5 miles
Clouds Few 700 ft
Mostly Cloudy 2100 ft
Overcast 2600 ft
Windchill 45 °F
Dew Point 43 °F
Humidity 95%
Rainfall 0.30 in
Snow Depth Not available.
7:26 AM 5:01 PM
Waxing Crescent, 46% visible
METAR KW22 062235Z AUTO 13004KT 2 1/2SM BR FEW007 BKN021 OVC026 05/05 A2971 RMK AO2 PWINO

10-Day Weather Forecast

Almanac

Astronomy

Dec. 06, 2016 Rise Set
Actual Time
Civil Twilight
Nautical Twilight
Astronomical Twilight
Moon
Length of Visible Light
Length of Day
Tomorrow will be .
, % of the Moon is Illuminated

Today's Extremes

State Highs State Lows

Community

WunderPhotos

Upload Photos

1,956,042 photos uploaded!

WunderBlog® & News

Nearby

Air Quality

  Air Quality AQ Index Pollutant
Not available.

Snow Depth

Station Depth Elevation

Earthquake Activity

City Distance Mag. Time & Date
Minimum magnitude displayed is 2.5.

Coastal Water Temperatures

Place Temperature

Stations

Nearby Weather Stations

Station Location Temp. Windchill Dew Point Humidity Wind Precip. Elev Updated Type
                   

Watches & Warnings

There are currently no watches in effect.